Twin Oaks (599, 859) Station Data

Red Flag Warning: No
Fire Weather Zone: 250
SDGE Region: North East
Lat/Lon: 33.194/-117.153

Observations

Time Wind Speed/Gust Temp(F) RH Fuel Moist Fuel Temp(F) Dewpt(F) Tmax(F) Tmin(F) Accum Precip 10-min Precip SL Press(mb)
6/27 5:00pm 226 4 G 8 83° 35% - - 53° 93° 59.4° - - -
6/27 4:50pm 220 5 G 8 83° 35% - - 52° 93° 59.4° - - -
6/27 4:40pm 207 6 G 9 83° 33% - - 51° 93° 59.4° - - -
6/27 4:30pm 205 7 G 9 82° 36% - - 53° 93° 59.4° - - -
6/27 4:20pm 212 7 G 10 83° 35% - - 52° 93° 59.4° - - -
6/27 4:10pm 215 6 G 11 84° 33% - - 51° 93° 59.4° - - -
6/27 4:00pm 245 5 G 8 84° 29% - - 49° 93° 59.4° - - -
6/27 3:50pm 250 5 G 11 85° 28% - - 48° 93° 59.4° - - -
6/27 3:40pm 250 5 G 10 85° 26% - - 47° 93° 59.4° - - -
6/27 3:30pm 252 4 G 9 86° 27% - - 48° 93° 59.4° - - -
6/27 3:20pm 239 5 G 9 85° 29% - - 49° 93° 59.4° - - -
6/27 3:10pm 232 5 G 9 86° 28% - - 49° 93° 59.4° - - -
6/27 3:00pm 225 5 G 12 86° 28% - - 50° 93° 59.4° - - -
6/27 2:50pm 226 6 G 12 85° 29% - - 50° 93° 59.4° - - -
6/27 2:40pm 211 6 G 11 86° 29% - - 51° 93° 59.4° - - -
6/27 2:30pm 271 4 G 9 86° 30% - - 51° 93° 59.4° - - -
6/27 2:20pm 282 6 G 12 86° 30% - - 50° 93° 59.4° - - -
6/27 2:10pm 272 7 G 12 86° 29% - - 50° 93° 59.4° - - -
6/27 2:00pm 277 9 G 14 86° 29% - - 50° 93° 59.4° - - -
6/27 1:50pm 269 7 G 13 86° 30% - - 51° 93° 59.4° - - -
6/27 1:40pm 269 8 G 13 87° 28% - - 50° 93° 59.4° - - -
6/27 1:30pm 270 7 G 11 88° 28% - - 50° 93° 59.4° - - -
6/27 1:20pm 266 7 G 11 89° 27% - - 50° 93° 59.4° - - -
6/27 1:10pm 270 6 G 12 89° 25% - - 48° 93° 59.4° - - -
6/27 1:00pm 279 7 G 13 88° 27% - - 49° 93° 59.4° - - -
6/27 12:50pm 278 7 G 10 88° 27% - - 50° 93° 59.4° - - -
6/27 12:40pm 261 4 G 9 89° 26% - - 50° 93° 59.4° - - -
6/27 12:30pm 248 5 G 11 90° 26% - - 50° 93° 59.4° - - -
6/27 12:20pm 238 5 G 9 90° 25% - - 50° 93° 59.4° - - -
6/27 12:10pm 231 5 G 8 90° 26% - - 50° 93° 59.4° - - -
6/27 12:00pm 270 5 G 9 89° 26% - - 50° 93° 59.4° - - -
6/27 11:50am 278 7 G 10 88° 27% - - 50° 93° 59.4° - - -
6/27 11:40am 263 6 G 11 89° 25% - - 48° 93° 59.4° - - -
6/27 11:30am 248 6 G 11 91° 22% - - 47° 93° 59.4° - - -
6/27 11:20am 229 4 G 8 93° 17% - - 41° 93° 59.4° - - -
6/27 11:10am 210 5 G 9 92° 14% - - 36° 93° 59.4° - - -
6/27 11:00am 226 4 G 8 92° 14% - - 36° 93° 59.4° - - -
6/27 10:50am 252 3 G 7 92° 15% - - 37° 92.1° 59.4° - - -
6/27 10:40am 234 3 G 6 91° 15% - - 38° 91.8° 59.4° - - -
6/27 10:30am 156 3 G 7 90° 14% - - 35° 90.9° 59.4° - - -
6/27 10:20am 151 3 G 6 89° 15% - - 35° 90.4° 59.4° - - -
6/27 10:10am 161 3 G 6 89° 15% - - 35° 89.5° 59.4° - - -
6/27 10:00am 203 3 G 5 88° 14% - - 34° 88.8° 59.4° - - -
6/27 9:50am 180 4 G 6 87° 13% - - 30° 87.7° 59.4° - - -
6/27 9:40am 189 4 G 6 87° 15% - - 33° 87.6° 59.4° - - -
6/27 9:30am 188 4 G 8 86° 16% - - 34° 87.1° 59.4° - - -
6/27 9:20am 183 4 G 7 85° 13% - - 30° 86.1° 59.4° - - -
6/27 9:10am 188 5 G 7 84° 13% - - 29° 85° 59.4° - - -
6/27 9:00am 176 3 G 5 83° 16% - - 33° 84.1° 59.4° - - -
6/27 8:50am 151 3 G 5 82° 17% - - 33° 82.6° 59.4° - - -
6/27 8:40am 165 2 G 3 81° 18% - - 34° 81.8° 59.4° - - -
6/27 8:30am 149 1 G 3 80° 18% - - 33° 80.7° 59.4° - - -
6/27 8:20am 158 2 G 3 78° 21% - - 35° 79° 59.4° - - -
6/27 8:10am 161 1 G 3 78° 21% - - 34° 78.2° 59.4° - - -
6/27 8:00am 160 1 G 2 77° 23% - - 36° 77.2° 59.4° - - -
6/27 7:50am 157 1 G 2 76° 25% - - 38° 76.3° 59.4° - - -
6/27 7:40am 36 0 G 1 74° 27% - - 38° 75.3° 59.4° - - -
6/27 7:30am 17 1 G 2 73° 29% - - 39° 74° 59.4° - - -
6/27 7:20am 25 0 G 1 71° 30% - - 38° 72.2° 59.4° - - -
6/27 7:10am 356 1 G 2 68° 32% - - 37° 69.2° 59.4° - - -
6/27 7:00am 326 1 G 2 64° 36% - - 37° 69° 59.4° - - -
6/27 6:50am 339 1 G 2 62° 40% - - 37° 69° 59.4° - - -
6/27 6:40am 2 1 G 3 64° 34% - - 35° 69° 59.4° - - -
6/27 6:30am 332 1 G 2 63° 34% - - 34° 69° 59.4° - - -
6/27 6:20am 13 1 G 2 62° 35% - - 34° 69° 59.4° - - -
6/27 6:10am 341 1 G 2 61° 39% - - 36° 69° 59.4° - - -
6/27 6:00am 334 2 G 3 62° 38% - - 36° 69° 59.5° - - -
6/27 5:50am 335 2 G 2 62° 37% - - 36° 69° 60.3° - - -
6/27 5:40am 12 1 G 2 63° 34% - - 35° 69° 60.3° - - -
6/27 5:30am 335 2 G 3 64° 36% - - 36° 69° 60.3° - - -
6/27 5:20am 356 1 G 3 63° 37% - - 37° 69° 60.3° - - -
6/27 5:10am 346 2 G 3 62° 41% - - 37° 69° 60.3° - - -
6/27 5:00am 2 1 G 3 62° 40% - - 37° 69° 61.1° - - -
6/27 4:50am 3 1 G 2 63° 41% - - 38° 69° 61.1° - - -
6/27 4:40am 2 2 G 3 64° 40% - - 39° 69° 61.1° - - -
6/27 4:30am 344 2 G 2 65° 40% - - 40° 69° 61.1° - - -
6/27 4:20am 341 2 G 3 63° 42% - - 40° 69° 61.1° - - -
6/27 4:10am 13 3 G 4 63° 41% - - 39° 69° 61.1° - - -
6/27 4:00am 10 3 G 4 63° 43% - - 40° 69° 61.1° - - -
6/27 3:50am 338 2 G 4 63° 45% - - 42° 69° 61.1° - - -
6/27 3:40am 350 2 G 3 63° 44% - - 41° 69° 61.1° - - -
6/27 3:30am 351 2 G 3 64° 44% - - 42° 69° 61.1° - - -
6/27 3:20am 337 2 G 3 63° 45% - - 41° 69° 61.1° - - -
6/27 3:10am 11 2 G 3 63° 44% - - 41° 69° 61.1° - - -
6/27 3:00am 348 1 G 3 64° 44% - - 42° 69° 61.1° - - -
6/27 2:50am 317 2 G 4 63° 48% - - 43° 69° 61.1° - - -
6/27 2:40am 347 2 G 3 63° 46% - - 42° 69° 62° - - -
6/27 2:30am 348 1 G 2 65° 43% - - 42° 69° 64.1° - - -
6/27 2:20am 336 2 G 4 66° 44% - - 43° 69° 64.3° - - -
6/27 2:10am 322 2 G 3 65° 45% - - 43° 69° 64.3° - - -
6/27 2:00am 335 2 G 3 65° 46% - - 43° 69° 64.3° - - -
6/27 1:50am 342 1 G 2 65° 45% - - 43° 69° 64.5° - - -
6/27 1:40am 340 2 G 3 65° 46% - - 44° 69° 64.5° - - -
6/27 1:30am 346 2 G 4 66° 45% - - 44° 69° 65.1° - - -
6/27 1:20am 338 2 G 3 66° 45% - - 45° 69° 65.1° - - -
6/27 1:10am 350 2 G 4 68° 43% - - 45° 69° 65.1° - - -
6/27 1:00am 330 2 G 4 67° 46% - - 46° 68.7° 65.1° - - -
6/27 12:50am 328 2 G 3 66° 48% - - 46° 68.7° 65.1° - - -
6/27 12:40am 323 2 G 4 67° 47% - - 46° 68.7° 65.1° - - -
6/27 12:30am 341 3 G 4 67° 47% - - 46° 68.7° 65.1° - - -
6/27 12:20am 355 2 G 4 68° 45% - - 45° 68.3° 66.5° - - -
6/27 12:10am 343 2 G 3 67° 47% - - 46° 67.3° 66.5° - - -
6/27 12:00am 341 2 G 3 67° 48% - - 46° 93.2° 62.7° - - -
6/26 11:50pm 343 2 G 4 66° 48% - - 46° 93.2° 62.7° - - -
6/26 11:40pm 323 2 G 4 66° 47% - - 45° 93.2° 62.7° - - -
6/26 11:30pm 359 2 G 3 67° 46% - - 45° 93.2° 62.7° - - -
6/26 11:20pm 343 1 G 3 67° 47% - - 46° 93.2° 62.7° - - -
6/26 11:10pm 312 1 G 3 67° 49% - - 47° 93.2° 62.7° - - -
6/26 11:00pm 326 2 G 4 67° 48% - - 47° 93.2° 62.7° - - -
6/26 10:50pm 345 2 G 3 68° 46% - - 47° 93.2° 62.7° - - -
6/26 10:40pm 336 2 G 2 67° 47% - - 46° 93.2° 62.7° - - -
6/26 10:30pm 330 2 G 2 68° 47% - - 47° 93.2° 62.7° - - -
6/26 10:20pm 350 2 G 3 69° 46% - - 47° 93.2° 62.7° - - -
6/26 10:10pm 1 3 G 5 69° 46% - - 47° 93.2° 62.7° - - -
6/26 10:00pm 355 3 G 4 69° 45% - - 47° 93.2° 62.7° - - -
6/26 9:50pm 3 1 G 2 69° 43% - - 46° 93.2° 62.7° - - -
6/26 9:40pm 6 3 G 4 71° 41% - - 46° 93.2° 62.7° - - -
6/26 9:30pm 11 3 G 4 71° 41% - - 46° 93.2° 62.7° - - -
6/26 9:20pm 8 2 G 3 71° 40% - - 45° 93.2° 62.7° - - -
6/26 9:10pm 358 1 G 2 73° 38% - - 46° 93.2° 62.7° - - -
6/26 9:00pm 358 3 G 4 73° 36% - - 45° 93.2° 62.7° - - -
6/26 8:50pm 10 3 G 5 74° 34% - - 44° 93.2° 62.7° - - -
6/26 8:40pm 9 3 G 4 75° 32% - - 44° 93.2° 62.7° - - -
6/26 8:30pm 12 3 G 4 77° 31% - - 44° 93.2° 62.7° - - -
6/26 8:20pm 337 0 G 3 81° 30% - - 47° 93.2° 62.7° - - -
6/26 8:10pm 346 0 G 1 81° 31% - - 47° 93.2° 62.7° - - -
6/26 8:00pm 39 1 G 2 82° 29% - - 46° 93.2° 62.7° - - -
6/26 7:50pm 20 1 G 2 83° 25% - - 44° 93.2° 62.7° - - -
6/26 7:40pm 12 1 G 4 86° 23% - - 43° 93.2° 62.7° - - -
6/26 7:30pm 277 3 G 5 86° 21% - - 42° 93.2° 62.7° - - -
6/26 7:20pm 272 3 G 5 87° 20% - - 42° 93.2° 62.7° - - -
6/26 7:10pm 278 1 G 4 89° 19% - - 41° 93.2° 62.7° - - -
6/26 7:00pm 258 1 G 3 89° 18% - - 40° 93.2° 62.7° - - -
6/26 6:50pm 264 2 G 4 89° 19% - - 42° 93.2° 62.7° - - -
6/26 6:40pm 287 4 G 6 89° 18% - - 40° 93.2° 62.7° - - -
6/26 6:30pm 263 3 G 6 90° 17% - - 39° 93.2° 62.7° - - -
6/26 6:20pm 268 2 G 5 90° 18% - - 40° 93.2° 62.7° - - -
6/26 6:10pm 269 3 G 6 89° 18% - - 40° 93.2° 62.7° - - -
6/26 6:00pm 274 3 G 6 90° 19% - - 42° 93.2° 62.7° - - -
6/26 5:50pm 272 4 G 7 90° 18% - - 41° 93.2° 62.7° - - -
6/26 5:40pm 306 3 G 7 90° 16% - - 38° 93.2° 62.7° - - -
6/26 5:30pm 297 4 G 6 91° 17% - - 40° 93.2° 62.7° - - -
6/26 5:20pm 292 4 G 8 91° 15% - - 36° 93.2° 62.7° - - -
6/26 5:10pm 268 4 G 7 91° 14% - - 36° 93.2° 62.7° - - -
6/26 5:00pm 276 4 G 8 91° 15% - - 37° 93.2° 62.7° - - -
6/26 4:50pm 281 4 G 8 91° 16% - - 39° 93.2° 62.7° - - -
6/26 4:40pm 294 4 G 8 92° 16% - - 40° 93.2° 62.7° - - -
6/26 4:30pm 286 5 G 9 92° 17% - - 40° 93.2° 62.7° - - -
6/26 4:20pm 288 5 G 7 91° 18% - - 42° 93.2° 62.7° - - -
6/26 4:10pm 285 4 G 8 91° 21% - - 46° 93.2° 62.7° - - -
6/26 4:00pm 278 5 G 10 90° 22% - - 46° 93.2° 62.7° - - -
6/26 3:50pm 275 6 G 9 91° 22% - - 46° 93.2° 62.7° - - -
6/26 3:40pm 272 5 G 8 91° 21% - - 45° 93.2° 62.7° - - -
6/26 3:30pm 281 6 G 10 91° 23% - - 48° 93.2° 62.7° - - -
6/26 3:20pm 281 5 G 10 91° 22% - - 48° 93.2° 62.7° - - -
6/26 3:10pm 284 5 G 9 92° 21% - - 46° 93.2° 62.7° - - -
6/26 3:00pm 269 5 G 8 92° 21% - - 47° 93.2° 62.7° - - -
6/26 2:50pm 272 6 G 9 92° 22% - - 47° 93.2° 62.7° - - -
6/26 2:40pm 282 5 G 10 91° 24% - - 49° 93.2° 62.7° - - -
6/26 2:30pm 290 5 G 9 92° 25% - - 51° 93.2° 62.7° - - -
6/26 2:20pm 279 5 G 9 91° 26% - - 52° 93.2° 62.7° - - -
6/26 2:10pm 268 6 G 11 91° 28% - - 53° 93.2° 62.7° - - -
6/26 2:00pm 268 7 G 12 91° 27% - - 53° 93.2° 62.7° - - -
6/26 1:50pm 272 7 G 11 91° 27% - - 52° 93.2° 62.7° - - -
6/26 1:40pm 281 6 G 11 91° 27% - - 52° 93.2° 62.7° - - -
6/26 1:30pm 284 6 G 9 91° 27% - - 52° 93.2° 62.7° - - -
6/26 1:20pm 273 6 G 10 90° 30% - - 54° 93.2° 62.7° - - -
6/26 1:10pm 277 6 G 11 89° 31% - - 54° 93.2° 62.7° - - -
6/26 1:00pm 276 6 G 10 90° 31% - - 55° 93.2° 62.7° - - -
6/26 12:50pm 267 6 G 11 90° 29% - - 54° 93.2° 62.7° - - -
6/26 12:40pm 266 6 G 9 90° 30% - - 55° 93.2° 62.7° - - -
6/26 12:30pm 272 5 G 10 91° 31% - - 55° 93.2° 62.7° - - -
6/26 12:20pm 271 5 G 9 91° 31% - - 56° 93.2° 62.7° - - -
6/26 12:10pm 271 5 G 8 90° 33% - - 57° 93.2° 62.7° - - -
6/26 12:00pm 272 5 G 9 90° 33% - - 57° 93.2° 62.7° - - -
6/26 11:50am 251 4 G 8 92° 32% - - 58° 93.2° 62.7° - - -
6/26 11:40am 264 4 G 8 90° 34% - - 58° 93.2° 62.7° - - -
6/26 11:30am 269 4 G 7 90° 34% - - 58° 93.2° 62.7° - - -
6/26 11:20am 272 5 G 7 90° 34% - - 58° 93.2° 62.7° - - -
6/26 11:10am 271 5 G 7 90° 34% - - 57° 93.2° 62.7° - - -
6/26 11:00am 274 5 G 10 91° 32% - - 57° 93.2° 62.7° - - -
6/26 10:50am 248 3 G 7 92° 28% - - 55° 93.2° 62.7° - - -
6/26 10:40am 215 4 G 6 92° 26% - - 53° 93.2° 62.7° - - -
6/26 10:30am 194 4 G 7 93° 27% - - 53° 93.2° 62.7° - - -
6/26 10:20am 204 3 G 6 93° 24% - - 50° 93.2° 62.7° - - -
6/26 10:10am 194 4 G 7 92° 23% - - 48° 92.7° 62.7° - - -
6/26 10:00am 195 4 G 7 92° 22% - - 47° 92.3° 62.7° - - -
6/26 9:50am 188 4 G 6 91° 20% - - 44° 92.3° 62.7° - - -
6/26 9:40am 189 5 G 7 89° 21% - - 45° 89.8° 62.7° - - -
6/26 9:30am 194 4 G 6 89° 24% - - 48° 89.5° 62.7° - - -
6/26 9:20am 183 4 G 5 88° 26% - - 49° 88.2° 62.7° - - -
6/26 9:10am 155 2 G 4 87° 26% - - 48° 87.7° 62.7° - - -
6/26 9:00am 186 3 G 5 86° 24% - - 45° 87.1° 62.7° - - -
6/26 8:50am 172 3 G 5 85° 25% - - 45° 86° 62.7° - - -
6/26 8:40am 171 3 G 4 83° 30% - - 49° 84.5° 62.7° - - -
6/26 8:30am 181 2 G 4 82° 34% - - 51° 82.5° 62.7° - - -
6/26 8:20am 208 1 G 2 81° 38% - - 53° 81.6° 62.7° - - -
6/26 8:10am 168 2 G 3 80° 38% - - 53° 80.7° 62.7° - - -
6/26 8:00am 157 1 G 3 80° 37% - - 52° 80.7° 62.7° - - -
6/26 7:50am 35 1 G 2 78° 40% - - 52° 79.3° 62.7° - - -
6/26 7:40am 19 1 G 2 76° 44% - - 53° 76.8° 62.7° - - -
6/26 7:30am 4 0 G 2 74° 49% - - 54° 75.8° 62.7° - - -
6/26 7:20am 315 1 G 2 72° 52% - - 53° 72.8° 62.7° - - -
6/26 7:10am 2 2 G 2 71° 50% - - 52° 72.3° 62.7° - - -
6/26 7:00am 3 0 G 2 70° 52% - - 51° 71.6° 62.7° - - -
6/26 6:50am 325 0 G 2 68° 55% - - 52° 69.5° 62.7° - - -
6/26 6:40am 310 1 G 2 66° 59% - - 51° 67.9° 62.7° - - -
6/26 6:30am 322 1 G 2 66° 59% - - 51° 67.9° 62.7° - - -
6/26 6:20am 0 0 G 0 66° 57% - - 50° 67.9° 62.7° - - -
6/26 6:10am 350 1 G 2 66° 60% - - 51° 67.9° 62.7° - - -
6/26 6:00am 358 2 G 3 65° 60% - - 51° 67.9° 62.7° - - -